Soaring Guidance
Issued by NWS Reno, NV

Home | Current Version | Previous Version | Text Only | Print | Product List | Glossary On
Versions: 1 2 3 4 5 6 7 8 9 10 11 12
000
UXUS97 KREV 081500
SRGREV

SOARING FORECAST
NATIONAL WEATHER SERVICE - RENO NV
700 AM PST THU DEC 8 2016

THIS SOARING FORECAST IS FOR THE EASTERN SIERRA AND WESTERN NEVADA
WITH SPECIFIC INDICES FOR THE GREATER RENO AREA.

THIS FORECAST IS PREPARED DAILY BY 700 AM AND IS NOT UPDATED.

FOR CURRENT FLIGHT CONDITIONS...FORECASTS...AND ADVISORIES...ACCESS
YOUR LOCAL BRIEFING OUTLET OR FLIGHT SERVICE STATION.

*******************************************************************
FORECASTED LOCAL INDICES FOR RENO:        TODAY     YESTERDAY
FORECASTED MAX TEMP AT RENO (DEG F).....     49          38
FORECASTED TRIGGER TEMPERATURE (DEG F)..     50          29
   EXCEEDED YESTERDAY BY 955 AM PST
FORECASTED MAXIMUM ALTITUDE (FT MSL)....   8300        9400
FORECASTED SOARING INDEX (FPM)..........    279         282
FORECASTED K-INDEX.........VALID 18Z....     21         -25
FORECASTED K-INDEX.........VALID 00Z....     25           5
FORECASTED LIFTED INDEX....VALID 18Z....      5          10
FORECASTED LIFTED INDEX....VALID 00Z....      5           6

AFTERNOON WINDS ALOFT FORECAST
MSL (FT) WIND/TEMP
9000  2642/+04
10000 2638/+02
12000 2829/-01
14000 2834/-06
16000 2840/-11
18000 2856/-17
24000 2962/-28
30000 2873/-45
34000 2894/-55
39000 2996/-65

SLIDE MOUNTAIN DATA:
     DATE       TIME     TEMP  DEWPT   RH         WIND (MPH)
                        (F)   (F)           | DIR  SPEED GUST
2016-12-08    04:50      27    27     99    | 250   27   33
2016-12-08    04:30      27    27     99    | 252   27   33
2016-12-08    04:20      27    27     99    | 251   27   34
2016-12-08    04:00      27    27     99    | 252   28   36

RENO TAF FORECAST:
KRNO 081138Z 0812/0912 VRB05KT 5SM -SN SCT025 BKN040 OVC060
      TEMPO 0813/0815 P6SM -FZDZ OVC040
     FM081500 18008KT P6SM -FZDZ SCT015 OVC040
     FM081800 19010G20KT P6SM VCSH SCT025 BKN040
     FM082000 22015G23KT P6SM VCSH SCT040 BKN060
     FM090300 19011G18KT P6SM VCSH SCT050 BKN070

CARSON CITY TAF FORECAST:
KCXP 081138Z 0812/0912 10008KT 6SM -SN SCT025 OVC040
      TEMPO 0813/0815 6SM -FZDZ OVC030
     FM081500 20008KT P6SM -FZDZ SCT015 OVC040
     FM081800 21010KT P6SM VCSH SCT025 BKN040
     FM082000 23012G20KT P6SM VCSH SCT035 BKN060
     FM090400 21008KT P6SM VCSH SCT050 BKN070

OUTLOOK FOR THE RENO-CARSON CITY-MINDEN AREA:
.FRIDAY...MOSTLY CLOUDY WITH A CHANCE OF RAIN. HIGHS 53 TO 58.
SOUTHWEST WINDS 10 TO 15 MPH INCREASING TO 15 TO 25 MPH IN THE
AFTERNOON. GUSTS UP TO 45 MPH.

SUNRISE AND SUNSET
DECEMBER  8 2016......SUNRISE   707 AM PST   SUNSET   435 PM PST
DECEMBER  9 2016......SUNRISE   708 AM PST   SUNSET   435 PM PST


USA.gov is the U.S. government's official web portal to all federal, state and local government web resources and services.